Time;durP1;ratioP1;P1;durP2;ratioP2;P2;SDS_P1;SDS_P2;PMS_P1;PMS_P2;Temp;Humidity;BMP_temperature;BMP_pressure;BME280_temperature;BME280_humidity;BME280_pressure;Samples;Min_cycle;Max_cycle;Signal;HPM_P1;HPM_P2
2021/09/03 00:00:21;;;;;;;0.45;0.40;;;8.10;99.90;;;;;;5072750;28;20025;-71
2021/09/03 00:02:47;;;;;;;0.40;0.40;;;8.10;99.90;;;;;;5072644;28;20488;-73
2021/09/03 00:05:18;;;;;;;0.40;0.40;;;8.10;99.90;;;;;;5072910;28;20020;-73
2021/09/03 00:07:45;;;;;;;0.47;0.40;;;8.10;99.90;;;;;;5072934;28;20028;-73
2021/09/03 00:10:14;;;;;;;6.28;0.50;;;8.10;99.90;;;;;;5072347;28;20028;-73
2021/09/03 00:12:40;;;;;;;0.32;0.32;;;8.10;99.90;;;;;;5072458;28;20029;-73
2021/09/03 00:15:11;;;;;;;0.40;0.40;;;8.10;99.90;;;;;;5072810;28;20024;-73
2021/09/03 00:17:37;;;;;;;0.57;0.40;;;8.10;99.90;;;;;;5072686;28;20145;-73
2021/09/03 00:20:06;;;;;;;0.30;0.30;;;8.00;99.90;;;;;;5072726;28;20090;-73
2021/09/03 00:22:31;;;;;;;0.35;0.35;;;8.00;99.90;;;;;;5072237;28;20024;-73
2021/09/03 00:24:57;;;;;;;0.30;0.30;;;8.00;99.90;;;;;;5072796;28;20032;-73
2021/09/03 00:27:23;;;;;;;0.20;0.20;;;7.90;99.90;;;;;;5072327;28;20029;-74
2021/09/03 00:29:49;;;;;;;1.75;0.30;;;7.90;99.90;;;;;;5072465;28;20055;-75
2021/09/03 00:32:14;;;;;;;0.30;0.30;;;7.90;99.90;;;;;;5072101;28;20404;-75
2021/09/03 00:34:40;;;;;;;0.47;0.30;;;7.80;99.90;;;;;;5072649;28;20032;-75
2021/09/03 00:37:06;;;;;;;0.30;0.30;;;7.80;99.90;;;;;;5072463;28;20024;-72
2021/09/03 00:39:32;;;;;;;0.40;0.40;;;7.80;99.90;;;;;;5072301;28;20055;-71
2021/09/03 00:41:57;;;;;;;0.38;0.38;;;7.70;99.90;;;;;;5072087;28;20023;-71
2021/09/03 00:44:23;;;;;;;0.30;0.30;;;7.70;99.90;;;;;;5071780;28;20050;-72
2021/09/03 00:46:49;;;;;;;0.30;0.30;;;7.70;99.90;;;;;;5072411;28;20079;-71
2021/09/03 00:49:15;;;;;;;0.30;0.30;;;7.70;99.90;;;;;;5072232;28;20116;-71
2021/09/03 00:51:41;;;;;;;0.30;0.30;;;7.70;99.90;;;;;;5072259;28;20392;-72
2021/09/03 00:54:07;;;;;;;1.20;0.40;;;7.70;99.90;;;;;;5071823;28;20407;-72
2021/09/03 00:56:34;;;;;;;0.20;0.20;;;7.60;99.90;;;;;;5071769;28;20082;-72
2021/09/03 00:59:00;;;;;;;0.30;0.30;;;7.60;99.90;;;;;;5072265;28;20029;-72
2021/09/03 01:01:25;;;;;;;0.30;0.30;;;7.60;99.90;;;;;;5072063;28;20376;-72
2021/09/03 01:03:51;;;;;;;0.35;0.35;;;7.60;99.90;;;;;;5072223;28;20101;-72
2021/09/03 01:06:17;;;;;;;0.30;0.30;;;7.50;99.90;;;;;;5071817;28;20024;-72
2021/09/03 01:08:43;;;;;;;0.30;0.20;;;7.50;99.90;;;;;;5071873;28;20073;-73
2021/09/03 01:11:09;;;;;;;0.40;0.30;;;7.50;99.90;;;;;;5071868;28;20111;-73
2021/09/03 01:13:34;;;;;;;2.40;0.40;;;7.50;99.90;;;;;;5071554;28;20118;-73
2021/09/03 01:16:00;;;;;;;0.25;0.25;;;7.50;99.90;;;;;;5071824;28;20031;-73
2021/09/03 01:45:06;;;;;;;0.30;0.30;;;7.40;99.90;;;;;;5071821;28;20056;-71
2021/09/03 01:47:32;;;;;;;0.38;0.30;;;7.40;99.90;;;;;;5071597;28;20036;-71
2021/09/03 01:49:57;;;;;;;0.30;0.30;;;7.40;99.90;;;;;;5071870;28;20032;-71
2021/09/03 01:52:23;;;;;;;0.52;0.40;;;7.40;99.90;;;;;;5071625;28;20048;-71
2021/09/03 01:54:49;;;;;;;1.95;0.30;;;7.40;99.90;;;;;;5071555;28;20504;-71
2021/09/03 01:57:15;;;;;;;0.57;0.47;;;7.40;99.90;;;;;;5074993;28;20174;-71
2021/09/03 01:59:40;;;;;;;0.35;0.32;;;7.40;99.90;;;;;;5075287;28;20028;-71
2021/09/03 02:02:06;;;;;;;0.38;0.38;;;7.40;99.90;;;;;;5075158;28;20480;-71
2021/09/03 02:04:32;;;;;;;0.40;0.30;;;7.40;99.90;;;;;;5075115;28;20020;-71
2021/09/03 02:06:58;;;;;;;0.40;0.40;;;7.40;99.90;;;;;;5075270;28;20468;-72
2021/09/03 02:09:23;;;;;;;0.40;0.40;;;7.40;99.90;;;;;;5075178;28;20108;-72
2021/09/03 02:11:49;;;;;;;0.40;0.40;;;7.40;99.90;;;;;;5075112;28;20480;-73
2021/09/03 02:14:15;;;;;;;0.30;0.30;;;7.40;99.90;;;;;;5074701;28;20036;-73
2021/09/03 02:16:41;;;;;;;0.40;0.40;;;7.40;99.90;;;;;;5074904;28;20020;-73
2021/09/03 02:19:06;;;;;;;0.30;0.30;;;7.30;99.90;;;;;;5075050;28;20381;-73
2021/09/03 02:21:32;;;;;;;0.35;0.35;;;7.30;99.90;;;;;;5074885;28;20020;-73
2021/09/03 02:23:58;;;;;;;0.30;0.30;;;7.30;99.90;;;;;;5074663;28;20480;-72
2021/09/03 02:26:24;;;;;;;0.30;0.30;;;7.20;99.90;;;;;;5074512;28;20031;-72
2021/09/03 02:28:49;;;;;;;0.75;0.30;;;7.20;99.90;;;;;;5074889;28;20073;-71
2021/09/03 02:31:15;;;;;;;0.75;0.38;;;7.20;99.90;;;;;;5074383;28;20392;-71
2021/09/03 02:33:41;;;;;;;0.30;0.30;;;7.20;99.90;;;;;;5074433;28;20032;-70
2021/09/03 02:36:07;;;;;;;0.40;0.30;;;7.20;99.90;;;;;;5074448;28;20017;-71
2021/09/03 02:38:33;;;;;;;0.30;0.30;;;7.30;99.90;;;;;;5074193;28;20037;-71
2021/09/03 02:40:58;;;;;;;1.85;0.30;;;7.20;99.90;;;;;;5074732;28;20162;-71
2021/09/03 02:43:25;;;;;;;0.30;0.30;;;7.20;99.90;;;;;;5074163;28;20498;-71
2021/09/03 02:45:51;;;;;;;1.17;0.40;;;7.20;99.90;;;;;;5074336;28;20476;-71
2021/09/03 02:48:17;;;;;;;0.40;0.40;;;7.20;99.90;;;;;;5074316;28;20027;-71
2021/09/03 02:50:43;;;;;;;0.43;0.40;;;7.10;99.90;;;;;;5074302;28;20024;-71
2021/09/03 02:53:09;;;;;;;0.60;0.40;;;7.10;99.90;;;;;;5074098;28;20119;-71
2021/09/03 02:55:34;;;;;;;0.30;0.30;;;7.10;99.90;;;;;;5073878;28;20044;-71
2021/09/03 02:58:00;;;;;;;0.32;0.32;;;7.10;99.90;;;;;;5073881;28;20372;-71
2021/09/03 03:00:27;;;;;;;0.75;0.40;;;7.00;99.90;;;;;;5073981;28;20021;-71
2021/09/03 03:02:53;;;;;;;1.17;0.47;;;7.00;99.90;;;;;;5073988;28;20082;-71
2021/09/03 03:05:23;;;;;;;1.95;0.30;;;7.00;99.90;;;;;;5074096;28;20017;-70
2021/09/03 03:07:49;;;;;;;0.40;0.40;;;6.90;99.90;;;;;;5073253;28;20031;-71
2021/09/03 03:10:15;;;;;;;0.40;0.40;;;6.90;99.90;;;;;;5074128;28;20291;-72
2021/09/03 03:12:40;;;;;;;1.98;0.47;;;6.90;99.90;;;;;;5073695;28;20388;-72
2021/09/03 03:15:09;;;;;;;0.30;0.30;;;6.90;99.90;;;;;;5074178;28;20054;-72
2021/09/03 03:17:35;;;;;;;1.08;0.40;;;6.90;99.90;;;;;;5073903;28;20047;-70
2021/09/03 03:20:01;;;;;;;0.30;0.30;;;6.90;99.90;;;;;;5073701;28;20021;-70
2021/09/03 03:22:26;;;;;;;0.40;0.40;;;6.80;99.90;;;;;;5073834;28;20074;-70
2021/09/03 03:24:52;;;;;;;0.35;0.35;;;6.80;99.90;;;;;;5073666;28;20025;-70
2021/09/03 03:27:18;;;;;;;0.40;0.40;;;6.70;99.90;;;;;;5073727;28;20028;-71
2021/09/03 03:29:43;;;;;;;4.20;0.50;;;6.70;99.90;;;;;;5073726;28;20177;-71
2021/09/03 03:32:09;;;;;;;0.45;0.45;;;6.70;99.90;;;;;;5073643;28;20051;-70
2021/09/03 03:34:35;;;;;;;0.63;0.50;;;6.70;99.90;;;;;;5073458;28;20079;-70
2021/09/03 03:37:01;;;;;;;0.40;0.40;;;6.70;99.90;;;;;;5073229;28;20031;-70
2021/09/03 03:39:26;;;;;;;0.50;0.50;;;6.70;99.90;;;;;;5073184;28;20037;-70
2021/09/03 03:41:53;;;;;;;0.75;0.50;;;6.60;99.90;;;;;;5073128;28;20024;-70
2021/09/03 03:44:19;;;;;;;0.40;0.40;;;6.60;99.90;;;;;;5072955;28;20107;-71
2021/09/03 03:46:45;;;;;;;0.68;0.50;;;6.60;99.90;;;;;;5073335;28;20059;-72
2021/09/03 03:49:11;;;;;;;2.75;0.50;;;6.60;99.90;;;;;;5073346;28;20107;-70
2021/09/03 03:51:37;;;;;;;0.85;0.57;;;6.60;99.90;;;;;;5073124;28;20442;-71
2021/09/03 03:54:03;;;;;;;0.60;0.50;;;6.60;99.90;;;;;;5072721;28;20580;-72
2021/09/03 03:56:28;;;;;;;0.50;0.50;;;6.60;99.90;;;;;;5072657;28;20422;-72
2021/09/03 03:58:54;;;;;;;0.82;0.40;;;6.50;99.90;;;;;;5072791;28;20078;-72
2021/09/03 04:01:20;;;;;;;0.45;0.45;;;6.60;99.90;;;;;;5072711;28;20023;-72
2021/09/03 04:03:45;;;;;;;0.43;0.43;;;6.60;99.90;;;;;;5072685;28;20028;-72
2021/09/03 04:06:11;;;;;;;0.43;0.43;;;6.50;99.90;;;;;;5073088;28;20042;-72
2021/09/03 04:08:37;;;;;;;0.77;0.45;;;6.60;99.90;;;;;;5072739;28;20028;-72
2021/09/03 04:11:03;;;;;;;0.47;0.47;;;6.70;99.90;;;;;;5072782;28;20032;-72
2021/09/03 04:13:28;;;;;;;1.02;0.50;;;6.90;99.90;;;;;;5072602;28;20123;-72
2021/09/03 04:15:54;;;;;;;1.00;0.50;;;7.10;99.90;;;;;;5072482;28;20513;-72
2021/09/03 04:18:20;;;;;;;0.50;0.50;;;7.20;99.90;;;;;;5071731;28;20029;-72
2021/09/03 04:20:45;;;;;;;0.50;0.50;;;7.40;99.90;;;;;;5072328;28;20053;-72
2021/09/03 04:23:11;;;;;;;0.70;0.50;;;7.60;99.90;;;;;;5072500;28;20020;-72
2021/09/03 04:25:37;;;;;;;2.10;0.50;;;7.80;99.90;;;;;;5072454;28;20426;-73
2021/09/03 04:28:03;;;;;;;0.57;0.50;;;8.10;99.90;;;;;;5072483;28;20036;-72
2021/09/03 04:30:29;;;;;;;1.77;0.40;;;8.40;99.90;;;;;;5072239;28;20479;-70
2021/09/03 04:32:55;;;;;;;0.40;0.40;;;8.80;99.90;;;;;;5072399;28;20036;-71
2021/09/03 04:35:21;;;;;;;0.47;0.47;;;9.10;99.90;;;;;;5072071;28;20477;-70
2021/09/03 04:37:49;;;;;;;1.02;0.50;;;9.40;99.90;;;;;;5072368;28;20031;-72
2021/09/03 04:40:17;;;;;;;0.43;0.40;;;9.70;99.90;;;;;;5072174;28;20029;-71
2021/09/03 04:42:42;;;;;;;5.22;0.52;;;10.00;99.90;;;;;;5072409;28;20032;-70
2021/09/03 04:45:09;;;;;;;5.15;0.47;;;10.70;99.90;;;;;;5072451;28;20078;-73
2021/09/03 04:47:36;;;;;;;0.47;0.47;;;11.50;99.90;;;;;;5072090;28;20082;-71
2021/09/03 04:50:04;;;;;;;0.65;0.30;;;11.60;99.90;;;;;;5072104;28;20028;-73
2021/09/03 04:52:30;;;;;;;2.13;0.40;;;11.90;99.90;;;;;;5071720;28;20032;-73
2021/09/03 04:54:56;;;;;;;1.95;0.43;;;12.00;99.90;;;;;;5071711;28;20048;-72
2021/09/03 04:57:21;;;;;;;0.40;0.40;;;12.10;99.90;;;;;;5065940;28;20111;-72
2021/09/03 04:59:47;;;;;;;0.47;0.47;;;12.20;99.90;;;;;;5060335;28;20021;-71
2021/09/03 05:02:13;;;;;;;0.30;0.30;;;12.50;99.90;;;;;;5058668;28;20061;-70
2021/09/03 05:04:39;;;;;;;0.30;0.30;;;12.80;99.90;;;;;;5059939;28;20092;-70
2021/09/03 05:07:05;;;;;;;0.32;0.30;;;12.80;99.90;;;;;;5059562;28;20048;-70
2021/09/03 05:09:31;;;;;;;0.52;0.30;;;12.90;99.90;;;;;;5059654;28;20025;-70
2021/09/03 05:11:56;;;;;;;2.45;0.50;;;13.10;99.90;;;;;;5061852;28;20021;-70
2021/09/03 05:14:22;;;;;;;0.40;0.30;;;13.40;99.90;;;;;;5059318;28;20396;-70
2021/09/03 05:16:48;;;;;;;0.82;0.35;;;13.60;99.90;;;;;;5062011;28;20147;-70
2021/09/03 05:19:14;;;;;;;2.95;0.60;;;13.80;98.70;;;;;;5060088;28;20041;-70
2021/09/03 05:21:40;;;;;;;7.10;0.80;;;13.80;98.20;;;;;;5061720;28;20020;-67
2021/09/03 05:24:05;;;;;;;0.98;0.57;;;13.70;97.10;;;;;;5061343;28;20067;-70
2021/09/03 05:26:31;;;;;;;2.85;0.40;;;13.30;97.00;;;;;;5060354;28;21332;-70
2021/09/03 05:28:57;;;;;;;1.38;0.38;;;12.90;97.40;;;;;;5062013;28;20032;-70
2021/09/03 05:31:23;;;;;;;1.08;0.47;;;12.60;97.90;;;;;;5059392;28;20024;-71
2021/09/03 05:33:48;;;;;;;0.60;0.30;;;12.30;98.80;;;;;;5055686;28;20040;-70
2021/09/03 05:36:14;;;;;;;1.60;0.30;;;12.10;99.40;;;;;;5055581;28;20100;-70
2021/09/03 05:38:40;;;;;;;3.05;0.30;;;12.10;99.90;;;;;;5055272;28;20119;-70
2021/09/03 05:41:06;;;;;;;0.43;0.20;;;12.20;99.80;;;;;;5055414;28;20071;-70
2021/09/03 05:43:31;;;;;;;0.52;0.30;;;12.50;99.90;;;;;;5055485;28;20047;-69
2021/09/03 05:45:57;;;;;;;0.35;0.30;;;12.90;99.60;;;;;;5055325;28;20053;-70
2021/09/03 05:48:23;;;;;;;2.15;0.30;;;13.30;99.20;;;;;;5055344;28;20075;-70
2021/09/03 05:50:49;;;;;;;0.50;0.50;;;13.50;97.80;;;;;;5055350;28;20024;-70
2021/09/03 05:53:15;;;;;;;1.30;0.50;;;13.50;97.50;;;;;;5055443;28;20041;-70
2021/09/03 05:55:41;;;;;;;0.30;0.28;;;13.30;96.80;;;;;;5057536;28;20569;-71
2021/09/03 05:58:06;;;;;;;0.28;0.20;;;13.00;96.60;;;;;;5062875;28;20025;-71
2021/09/03 06:00:32;;;;;;;0.57;0.30;;;12.80;97.00;;;;;;5062870;28;20021;-73
2021/09/03 06:02:59;;;;;;;0.45;0.30;;;12.60;97.30;;;;;;5066390;28;20025;-73
2021/09/03 06:05:25;;;;;;;0.43;0.30;;;12.40;97.50;;;;;;5074861;28;20033;-73
2021/09/03 06:07:51;;;;;;;0.43;0.30;;;12.20;97.90;;;;;;5069736;28;20016;-72
2021/09/03 06:10:16;;;;;;;0.40;0.30;;;12.10;98.40;;;;;;5074206;28;20035;-72
2021/09/03 06:12:42;;;;;;;2.22;0.40;;;12.20;98.90;;;;;;5073675;28;20024;-72
2021/09/03 06:15:09;;;;;;;0.57;0.30;;;12.30;98.80;;;;;;5074239;28;20399;-72
2021/09/03 06:17:36;;;;;;;4.13;0.40;;;12.30;98.50;;;;;;5074256;28;20024;-72
2021/09/03 06:20:06;;;;;;;0.50;0.32;;;12.20;98.60;;;;;;5074793;28;20020;-72
2021/09/03 06:22:32;;;;;;;;;;;12.10;99.10;;;;;;5075041;28;20082;-74
2021/09/03 06:24:57;;;;;;;1.52;0.40;;;12.00;98.70;;;;;;5074594;28;20287;-75
2021/09/03 06:27:23;;;;;;;4.57;1.05;;;12.40;99.90;;;;;;5073477;28;20430;-75
2021/09/03 06:29:49;;;;;;;4.53;0.60;;;13.50;99.90;;;;;;5074166;28;20029;-72
2021/09/03 06:32:17;;;;;;;1.73;0.40;;;14.40;99.90;;;;;;5074313;28;20039;-75
2021/09/03 06:34:48;;;;;;;4.03;0.40;;;14.60;99.90;;;;;;5056311;28;20073;-75
2021/09/03 06:37:15;;;;;;;0.90;0.45;;;15.10;99.90;;;;;;5054024;28;20147;-70
2021/09/03 06:39:41;;;;;;;0.20;0.20;;;15.60;99.90;;;;;;5053870;28;20029;-72
2021/09/03 06:42:09;;;;;;;0.10;0.10;;;15.80;99.90;;;;;;5053175;28;20033;-73
2021/09/03 06:44:35;;;;;;;0.20;0.20;;;15.40;95.90;;;;;;5056416;28;20059;-72
2021/09/03 06:47:01;;;;;;;0.20;0.20;;;15.00;95.00;;;;;;5064727;28;20046;-72
2021/09/03 06:49:27;;;;;;;0.20;0.20;;;14.80;94.90;;;;;;5070290;28;20036;-72
2021/09/03 06:51:53;;;;;;;0.30;0.30;;;14.70;94.50;;;;;;5073903;28;20063;-76
2021/09/03 06:54:18;;;;;;;0.20;0.20;;;14.50;93.50;;;;;;5073852;28;20097;-72
2021/09/03 06:56:44;;;;;;;0.10;0.10;;;14.30;93.10;;;;;;5068987;28;20051;-72
2021/09/03 06:59:10;;;;;;;0.20;0.20;;;14.30;93.40;;;;;;5063556;28;20017;-73
2021/09/03 07:01:36;;;;;;;0.85;0.30;;;14.30;93.50;;;;;;5070387;28;20048;-73
2021/09/03 07:04:02;;;;;;;0.82;0.15;;;14.30;93.40;;;;;;5073800;28;20033;-72
2021/09/03 07:06:28;;;;;;;0.20;0.20;;;14.30;93.00;;;;;;5073389;28;20017;-71
2021/09/03 07:08:54;;;;;;;4.97;0.63;;;14.30;92.70;;;;;;5073295;28;20032;-74
2021/09/03 07:11:19;;;;;;;0.68;0.15;;;14.40;93.00;;;;;;5073726;28;20021;-77
2021/09/03 07:13:45;;;;;;;0.85;0.20;;;14.40;93.00;;;;;;5073444;28;20888;-77
2021/09/03 07:16:11;;;;;;;0.20;0.20;;;14.50;92.50;;;;;;5073846;28;20040;-71
2021/09/03 07:18:37;;;;;;;0.20;0.20;;;14.30;91.20;;;;;;5073748;28;20104;-75
2021/09/03 07:21:03;;;;;;;1.65;0.40;;;14.20;90.90;;;;;;5073619;28;20103;-72
2021/09/03 07:23:29;;;;;;;1.60;0.50;;;14.40;99.90;;;;;;5073262;28;20070;-86
2021/09/03 07:25:54;;;;;;;0.22;0.20;;;14.60;95.30;;;;;;5073508;28;20020;-71
2021/09/03 07:28:20;;;;;;;1.80;0.47;;;14.70;94.70;;;;;;5073489;28;20035;-77
2021/09/03 07:30:46;;;;;;;1.13;0.30;;;14.40;93.70;;;;;;5073706;28;20111;-80
2021/09/03 07:33:11;;;;;;;1.73;0.50;;;14.60;98.50;;;;;;5073356;28;20028;-77
2021/09/03 07:35:37;;;;;;;4.28;0.75;;;14.90;99.90;;;;;;5073291;28;20024;-74
2021/09/03 07:38:04;;;;;;;2.28;0.35;;;15.40;99.90;;;;;;5073473;28;20116;-73
2021/09/03 07:40:32;;;;;;;1.98;0.57;;;15.80;99.90;;;;;;5073466;28;20108;-73
2021/09/03 07:43:05;;;;;;;3.33;0.65;;;16.30;99.90;;;;;;5073378;28;20384;-74
2021/09/03 07:45:32;;;;;;;0.10;0.10;;;16.40;99.90;;;;;;5072971;28;20108;-71
2021/09/03 07:47:57;;;;;;;0.40;0.22;;;16.00;88.80;;;;;;5073091;28;20411;-71
2021/09/03 07:50:23;;;;;;;0.20;0.20;;;14.80;87.50;;;;;;5072884;28;20020;-71
2021/09/03 07:52:49;;;;;;;0.15;0.10;;;14.10;89.80;;;;;;5072944;28;20038;-71
2021/09/03 07:55:14;;;;;;;0.38;0.20;;;13.70;90.60;;;;;;5072766;28;20059;-71
2021/09/03 07:57:40;;;;;;;0.20;0.20;;;13.40;90.80;;;;;;5072616;28;20044;-71
2021/09/03 08:00:06;;;;;;;2.55;0.10;;;13.30;91.40;;;;;;5072775;28;20044;-71
2021/09/03 08:02:33;;;;;;;2.40;0.40;;;13.10;92.10;;;;;;5072583;28;20472;-71
2021/09/03 08:04:59;;;;;;;0.70;0.40;;;13.20;92.60;;;;;;5072801;28;20024;-71
2021/09/03 08:07:27;;;;;;;8.10;0.30;;;13.10;92.50;;;;;;5072892;28;20020;-71
2021/09/03 08:09:54;;;;;;;3.75;0.40;;;13.10;92.50;;;;;;5072792;28;20045;-70
2021/09/03 08:12:20;;;;;;;2.70;0.30;;;13.40;99.90;;;;;;5072573;28;20024;-71
2021/09/03 08:14:46;;;;;;;7.82;1.00;;;13.90;96.40;;;;;;5072382;28;20047;-78
2021/09/03 08:17:11;;;;;;;0.28;0.20;;;13.80;95.60;;;;;;5072696;28;20025;-69
2021/09/03 08:19:37;;;;;;;0.20;0.20;;;14.80;99.90;;;;;;5072519;28;20028;-72
2021/09/03 08:22:03;;;;;;;0.20;0.20;;;14.80;91.80;;;;;;5072486;28;20360;-80
2021/09/03 08:24:29;;;;;;;0.20;0.20;;;14.30;91.10;;;;;;5072467;28;20351;-84
2021/09/03 08:26:55;;;;;;;0.20;0.20;;;13.90;90.20;;;;;;5072226;28;20379;-78
2021/09/03 08:29:21;;;;;;;0.88;0.20;;;13.70;91.30;;;;;;5072157;28;20024;-79
2021/09/03 08:31:47;;;;;;;0.35;0.20;;;13.60;90.50;;;;;;5072040;28;20052;-78
2021/09/03 08:34:12;;;;;;;1.23;0.30;;;13.60;91.70;;;;;;5071988;28;20032;-78
2021/09/03 08:36:38;;;;;;;0.77;0.28;;;13.60;92.00;;;;;;5071985;28;20029;-76
2021/09/03 08:39:04;;;;;;;1.20;0.20;;;13.60;91.90;;;;;;5072038;28;20074;-75
2021/09/03 08:41:30;;;;;;;0.20;0.20;;;13.50;90.50;;;;;;5072499;28;20056;-84
2021/09/03 08:43:59;;;;;;;0.50;0.30;;;13.40;90.90;;;;;;5078056;28;20047;-79
2021/09/03 08:46:30;;;;;;;0.65;0.30;;;13.40;91.40;;;;;;5073684;28;20028;-80
2021/09/03 08:48:56;;;;;;;0.20;0.20;;;13.30;91.00;;;;;;5071989;28;20519;-80
2021/09/03 08:51:22;;;;;;;0.52;0.22;;;13.20;90.80;;;;;;5072126;28;20066;-80
2021/09/03 08:53:47;;;;;;;0.10;0.10;;;13.20;91.40;;;;;;5071850;28;20033;-79
2021/09/03 08:56:17;;;;;;;0.10;0.10;;;13.10;90.40;;;;;;5072086;28;20383;-80
2021/09/03 08:58:43;;;;;;;0.63;0.15;;;13.10;90.90;;;;;;5071891;28;20403;-80
2021/09/03 09:01:11;;;;;;;0.17;0.17;;;13.10;91.00;;;;;;5072171;28;20024;-80
2021/09/03 09:03:43;;;;;;;2.50;0.20;;;13.00;91.30;;;;;;5071859;28;20017;-82
2021/09/03 09:06:10;;;;;;;0.20;0.20;;;13.00;89.80;;;;;;5071686;28;20021;-86
2021/09/03 09:08:38;;;;;;;0.20;0.20;;;13.00;90.20;;;;;;5071826;28;20502;-79
2021/09/03 09:11:10;;;;;;;2.22;0.57;;;13.00;86.60;;;;;;5072322;28;20115;-72
2021/09/03 09:13:41;;;;;;;7.68;0.88;;;13.20;93.30;;;;;;5071609;28;20048;-72
2021/09/03 09:16:11;;;;;;;1.77;0.32;;;13.90;99.90;;;;;;5072230;28;20020;-72
2021/09/03 09:18:38;;;;;;;0.20;0.20;;;14.30;93.50;;;;;;5071526;28;20029;-73
2021/09/03 09:21:22;;;;;;;0.10;0.10;;;14.10;89.20;;;;;;5071776;28;20107;-73
2021/09/03 09:24:09;;;;;;;0.35;0.10;;;13.90;85.80;;;;;;5071470;28;20476;-73
2021/09/03 09:26:49;;;;;;;0.10;0.10;;;13.70;86.20;;;;;;5071892;28;20039;-73
2021/09/03 09:29:28;;;;;;;0.20;0.20;;;13.50;85.50;;;;;;5071744;28;20028;-73
2021/09/03 09:32:05;;;;;;;3.60;0.30;;;13.40;85.60;;;;;;5071627;28;20029;-73
2021/09/03 09:34:36;;;;;;;0.20;0.20;;;13.40;84.90;;;;;;5071648;28;20036;-73
2021/09/03 09:37:06;;;;;;;1.08;0.20;;;13.40;86.70;;;;;;5071579;28;20400;-73
2021/09/03 09:39:51;;;;;;;0.20;0.20;;;13.50;87.30;;;;;;5071648;28;20362;-73
2021/09/03 09:42:43;;;;;;;0.20;0.10;;;13.60;85.50;;;;;;5071847;28;20027;-73
2021/09/03 09:45:16;;;;;;;0.20;0.20;;;13.70;81.50;;;;;;5071045;28;20028;-73
2021/09/03 09:47:43;;;;;;;0.22;0.22;;;13.60;81.20;;;;;;5071211;28;20024;-73
2021/09/03 09:50:26;;;;;;;6.97;0.50;;;13.60;79.20;;;;;;5071583;28;20090;-73
2021/09/03 09:52:52;;;;;;;1.33;0.20;;;13.60;78.40;;;;;;5071427;28;20052;-73
2021/09/03 09:55:18;;;;;;;0.80;0.40;;;13.50;78.60;;;;;;5071142;28;20072;-73
2021/09/03 09:57:49;;;;;;;0.60;0.20;;;13.50;77.90;;;;;;5071010;28;20020;-73
2021/09/03 10:00:16;;;;;;;1.45;0.43;;;13.60;78.70;;;;;;5071209;28;20032;-73
2021/09/03 10:02:43;;;;;;;0.20;0.20;;;13.70;77.80;;;;;;5071223;28;20016;-73
2021/09/03 10:05:10;;;;;;;1.13;0.30;;;13.70;77.00;;;;;;5071501;28;20078;-73
2021/09/03 10:07:39;;;;;;;2.05;0.30;;;13.80;77.70;;;;;;5071309;28;20136;-73
2021/09/03 10:10:05;;;;;;;0.10;0.10;;;13.80;77.10;;;;;;5071556;28;20031;-73
2021/09/03 10:12:31;;;;;;;1.10;0.20;;;13.80;76.80;;;;;;5071445;28;20032;-73
2021/09/03 10:14:57;;;;;;;0.20;0.20;;;13.70;74.90;;;;;;5071030;28;20423;-73
2021/09/03 10:17:24;;;;;;;0.20;0.20;;;13.70;76.00;;;;;;5072341;28;20460;-73
2021/09/03 10:19:52;;;;;;;0.15;0.15;;;13.70;75.10;;;;;;5074971;28;20028;-73
2021/09/03 10:22:19;;;;;;;1.45;0.13;;;13.80;75.40;;;;;;5074859;28;20471;-73
2021/09/03 10:24:46;;;;;;;1.98;0.20;;;13.70;75.50;;;;;;5074596;28;20032;-73
2021/09/03 10:27:13;;;;;;;0.20;0.20;;;13.80;76.50;;;;;;5075078;28;20036;-73
2021/09/03 10:29:41;;;;;;;0.25;0.20;;;13.90;75.90;;;;;;5074854;28;20052;-73
2021/09/03 10:32:10;;;;;;;0.95;0.13;;;14.00;76.80;;;;;;5074505;28;20035;-73
2021/09/03 10:34:39;;;;;;;0.10;0.10;;;14.10;76.40;;;;;;5074409;28;20124;-73
2021/09/03 10:37:15;;;;;;;0.70;0.20;;;14.10;75.90;;;;;;5074427;28;20066;-74
2021/09/03 10:39:54;;;;;;;0.22;0.22;;;14.10;77.30;;;;;;5074203;28;20387;-73
2021/09/03 10:45:14;;;;;;;2.65;0.30;;;14.10;77.60;;;;;;5074453;28;20021;-72
2021/09/03 10:47:46;;;;;;;1.95;0.50;;;14.20;80.70;;;;;;5074427;28;20400;-72
2021/09/03 10:50:22;;;;;;;4.32;0.40;;;14.20;76.40;;;;;;5074420;28;20028;-72
2021/09/03 10:53:06;;;;;;;1.98;0.20;;;14.20;80.50;;;;;;5073987;28;20024;-73
2021/09/03 10:55:55;;;;;;;6.38;0.80;;;14.20;76.30;;;;;;5073976;28;20048;-72
2021/09/03 10:58:32;;;;;;;8.50;0.63;;;14.30;90.40;;;;;;5074244;28;20028;-71
2021/09/03 11:01:09;;;;;;;7.55;0.98;;;15.30;88.40;;;;;;5074151;28;20031;-80
2021/09/03 11:03:39;;;;;;;2.95;0.68;;;15.90;92.70;;;;;;5073857;28;20081;-79
2021/09/03 11:06:05;;;;;;;6.10;0.77;;;16.40;90.10;;;;;;5074015;28;20111;-76
2021/09/03 11:08:38;;;;;;;1.52;0.20;;;16.40;85.50;;;;;;5073715;28;20139;-73
2021/09/03 11:11:30;;;;;;;0.20;0.20;;;16.00;72.60;;;;;;5074126;28;20047;-73
2021/09/03 11:14:07;;;;;;;0.20;0.20;;;15.30;69.40;;;;;;5071610;28;20115;-73
2021/09/03 11:16:56;;;;;;;0.20;0.20;;;14.90;69.80;;;;;;5073720;28;20028;-73
2021/09/03 11:19:33;;;;;;;0.20;0.15;;;14.60;70.10;;;;;;5073484;28;20078;-73
2021/09/03 11:22:02;;;;;;;0.20;0.20;;;14.50;69.30;;;;;;5073329;28;20034;-73
2021/09/03 11:24:38;;;;;;;0.10;0.10;;;14.50;70.00;;;;;;5073384;28;20025;-73
2021/09/03 11:27:06;;;;;;;0.10;0.10;;;14.40;68.80;;;;;;5073331;28;20488;-73
2021/09/03 11:29:53;;;;;;;0.20;0.20;;;14.30;67.30;;;;;;5072805;28;20060;-73
2021/09/03 11:32:23;;;;;;;1.90;0.30;;;14.20;68.60;;;;;;5073546;28;20369;-73
2021/09/03 11:34:50;;;;;;;0.20;0.20;;;14.20;68.90;;;;;;5073380;28;20037;-73
2021/09/03 11:37:17;;;;;;;0.57;0.20;;;14.20;69.90;;;;;;5073255;28;20032;-73
2021/09/03 11:39:43;;;;;;;0.95;0.30;;;14.20;69.70;;;;;;5073290;28;20049;-73
2021/09/03 11:42:21;;;;;;;0.20;0.20;;;14.20;69.50;;;;;;5073137;28;20079;-73
2021/09/03 11:45:02;;;;;;;0.82;0.28;;;14.20;69.20;;;;;;5073216;28;20535;-73
2021/09/03 11:47:35;;;;;;;1.05;0.20;;;14.20;69.90;;;;;;5072985;28;20074;-73
2021/09/03 11:50:05;;;;;;;0.22;0.22;;;14.20;70.10;;;;;;5072874;28;20028;-73
2021/09/03 11:52:32;;;;;;;0.98;0.25;;;14.10;70.00;;;;;;5073252;28;20100;-73
2021/09/03 11:55:00;;;;;;;0.30;0.20;;;14.10;69.50;;;;;;5072546;28;20036;-73
2021/09/03 11:57:27;;;;;;;3.00;0.20;;;14.00;69.80;;;;;;5072739;28;20391;-73
2021/09/03 11:59:58;;;;;;;0.50;0.28;;;14.00;71.40;;;;;;5072928;28;20035;-73
2021/09/03 12:02:25;;;;;;;0.25;0.20;;;14.10;70.70;;;;;;5073083;28;20096;-73
2021/09/03 12:04:53;;;;;;;0.20;0.20;;;14.10;71.60;;;;;;5072383;28;20468;-73
2021/09/03 12:07:21;;;;;;;0.22;0.20;;;14.10;71.90;;;;;;5072621;28;20456;-73
2021/09/03 12:09:47;;;;;;;0.20;0.20;;;14.00;68.90;;;;;;5072391;28;20494;-73
2021/09/03 12:12:25;;;;;;;0.20;0.20;;;13.90;68.20;;;;;;5072495;28;20086;-73
2021/09/03 12:15:00;;;;;;;0.28;0.20;;;13.80;66.40;;;;;;5072598;28;20170;-73
2021/09/03 12:17:42;;;;;;;0.30;0.30;;;13.80;68.50;;;;;;5072546;28;20025;-73
2021/09/03 12:20:16;;;;;;;0.10;0.10;;;13.80;68.30;;;;;;5072684;28;20082;-73
2021/09/03 12:22:47;;;;;;;0.95;0.20;;;13.70;68.30;;;;;;5072247;28;20016;-76
2021/09/03 12:25:13;;;;;;;0.20;0.20;;;13.60;68.30;;;;;;5072228;28;20074;-73
2021/09/03 12:27:39;;;;;;;0.82;0.10;;;13.60;69.40;;;;;;5072241;28;20017;-73
2021/09/03 12:30:12;;;;;;;0.13;0.10;;;13.70;70.20;;;;;;5072073;28;20025;-73
2021/09/03 12:32:39;;;;;;;0.28;0.15;;;13.70;70.40;;;;;;5072159;28;20387;-73
2021/09/03 12:35:14;;;;;;;0.65;0.40;;;13.80;70.10;;;;;;5072271;28;20032;-73
2021/09/03 12:37:39;;;;;;;0.75;0.30;;;13.90;70.20;;;;;;5072550;28;20408;-73
2021/09/03 12:40:09;;;;;;;0.38;0.20;;;13.90;70.00;;;;;;5071259;28;20066;-73
2021/09/03 12:42:40;;;;;;;0.20;0.20;;;13.90;68.40;;;;;;5072279;28;20021;-73
2021/09/03 12:45:07;;;;;;;0.22;0.20;;;13.90;67.40;;;;;;5072121;28;20028;-73
2021/09/03 12:47:33;;;;;;;0.32;0.10;;;14.00;67.50;;;;;;5072331;28;20035;-74
2021/09/03 12:50:10;;;;;;;0.65;0.65;;;14.10;67.20;;;;;;5072227;28;20321;-74
2021/09/03 12:52:37;;;;;;;0.20;0.20;;;14.10;67.70;;;;;;5072362;28;20028;-74
2021/09/03 12:55:03;;;;;;;0.20;0.20;;;14.20;68.70;;;;;;5071456;28;20093;-74
2021/09/03 12:57:29;;;;;;;0.30;0.20;;;14.30;67.80;;;;;;5071784;28;20020;-73
2021/09/03 12:59:55;;;;;;;0.15;0.15;;;14.30;65.20;;;;;;5071604;28;20031;-71
2021/09/03 13:02:21;;;;;;;2.92;0.20;;;14.30;65.80;;;;;;5071937;28;20040;-74
2021/09/03 13:04:47;;;;;;;0.20;0.20;;;14.40;64.60;;;;;;5071643;28;20082;-74
2021/09/03 13:07:13;;;;;;;0.20;0.20;;;14.40;65.90;;;;;;5071801;28;20037;-74
2021/09/03 13:09:38;;;;;;;0.25;0.20;;;14.30;63.30;;;;;;5072057;28;20071;-74
2021/09/03 13:12:05;;;;;;;0.10;0.10;;;14.30;65.10;;;;;;5071988;28;20035;-74
2021/09/03 13:14:31;;;;;;;0.20;0.20;;;14.30;63.70;;;;;;5071779;28;20415;-73
2021/09/03 13:16:58;;;;;;;0.10;0.10;;;14.30;63.20;;;;;;5071995;28;20111;-73
2021/09/03 13:19:24;;;;;;;0.20;0.20;;;14.20;63.70;;;;;;5071772;28;20036;-74
2021/09/03 13:21:50;;;;;;;0.25;0.20;;;14.20;63.40;;;;;;5071599;28;20021;-74